Sumatra, Montana
Current Conditions -  °F | °C
As of 11:20 AM on Friday 19 Dec 2014 (Local Time) from KMVH Reporting Station
Clear Clear  
Wind Chill: 39°   Ceiling: Unl
Heat Index: 39°   Visibility: 10mi
Dew Point: 23°   Wind: 0mph
Humidity: 52%   Direction: NA
Pressure: 29.88"   Gusts: NA
Location:  46.62°N, 107.55°W
Report Text: KMVH 191820Z AUTO 00000KT 10SM CLR 04/M05 A2988 RMK A01
Loading
Personal Weather Stations






























Interactive Weather Map New forecast layout! Learn more

10-Day Weather Forecast

Advertisements
Track Severe Weather on mobile